Terminal Aerodrome Forecast
Issued by NWS

Home | Current Version | Previous Version | Text Only | Print | Product List | Glossary On
Versions: 1 2 3 4 5 6 7 8 9 10 11 12
000
FTUS46 KLOX 271100
TAFSBP
TAF
KSBP 271132Z 2712/2812 VRB03KT 5SM BR BKN008
     FM271800 31010KT P6SM SCT010
     FM272100 31018G25KT P6SM SCT025 BKN050
     FM280300 31010KT P6SM BKN025
     FM280800 VRB03KT P6SM SCT015 OVC025 PROB30 2808/2812 5SM -RA BR
      OVC015=

USA.gov is the U.S. government's official web portal to all federal, state and local government web resources and services.